Accueil
METAR-TAF:

METAR-TAF

Aéroports :

Trang, Thaïlande

latitude: 07-31N, longitude: 099-37E, altitude: 14 m

Observation

Le bulletin a été fait il y a 3 heures et 2 minutes, à 13:00 UTC
Vent 6 kt de nord-est
Température 28°C
Humidité 74%
Pression 1010 hPa
Visibilité 10 km ou plus
Quelques nuages à une hauteur de 2000 ft

METAR: VTST 041300Z 05006KT 9999 FEW020 28/23 Q1010 NOSIG

Heure: 23:02 (16:02 UTC)

Prévision

Le bulletin a été fait il y a 5 heures et 2 minutes, à 11:00 UTC
Prévision valable du 04 à 12 UTC au 05 à 12 UTC
Vent 6 kt de est/nord-est
Visibilité 10 km ou plus
Quelques nuages à une hauteur de 2000 ft

TAF: VTST 041100Z 0412/0512 06006KT 9999 FEW020

Observations et prévisions météorologiques de plus de 4000 aéroports (messages METAR et TAF).

Les stations disponibles sont représentées par des disques jaunes et rouges sur la carte.

Passer la souris dessus pour voir le nom de la station.

Cliquer dessus pour voir les observations et prévisions météorologiques.

Pour changer de carte: cliquez sur les boutons verts avec une croix noire pour zoomer, sur le bouton vert avec un tiret pour effectuer un zoom arrière, ou sur les flèches vertes pour les cartes adjacentes.


METAR-TAF: